Time;durP1;ratioP1;P1;durP2;ratioP2;P2;SDS_P1;SDS_P2;PMS_P1;PMS_P2;Temp;Humidity;BMP_temperature;BMP_pressure;BME280_temperature;BME280_humidity;BME280_pressure;Samples;Min_cycle;Max_cycle;Signal;HPM_P1;HPM_P2
2023/12/30 00:01:24;;;;;;;5.72;5.10;;;6.10;99.90;;;;;;5067915;28;20190;-76
2023/12/30 00:03:51;;;;;;;5.30;4.80;;;6.10;99.90;;;;;;5068035;28;20253;-78
2023/12/30 00:06:19;;;;;;;5.38;4.70;;;6.00;99.90;;;;;;5069055;28;20206;-77
2023/12/30 00:08:46;;;;;;;4.72;4.43;;;6.00;99.90;;;;;;5068748;28;20319;-77
2023/12/30 00:11:14;;;;;;;4.47;4.10;;;6.00;99.90;;;;;;5070126;28;20202;-76
2023/12/30 00:13:41;;;;;;;4.65;4.35;;;6.00;99.90;;;;;;5067989;28;20299;-75
2023/12/30 00:16:13;;;;;;;4.20;3.90;;;5.90;99.90;;;;;;5064584;28;20190;-77
2023/12/30 00:18:40;;;;;;;4.00;3.70;;;5.90;99.90;;;;;;5066855;28;20233;-78
2023/12/30 00:21:07;;;;;;;4.00;3.70;;;5.90;99.90;;;;;;5065468;28;20194;-78
2023/12/30 00:23:35;;;;;;;4.00;3.70;;;5.90;99.90;;;;;;5067634;28;20732;-76
2023/12/30 00:26:02;;;;;;;4.10;3.80;;;5.90;99.90;;;;;;5069657;28;20210;-77
2023/12/30 00:28:29;;;;;;;4.18;3.88;;;5.90;99.90;;;;;;5069019;28;20739;-77
2023/12/30 00:30:56;;;;;;;4.35;4.05;;;5.80;99.90;;;;;;5067986;28;20562;-78
2023/12/30 00:33:24;;;;;;;4.25;3.90;;;5.80;99.90;;;;;;5066910;28;20226;-78
2023/12/30 00:35:51;;;;;;;4.90;4.20;;;5.80;99.90;;;;;;5066390;28;20190;-76
2023/12/30 00:38:18;;;;;;;4.68;4.28;;;5.70;99.90;;;;;;5066774;28;20213;-76
2023/12/30 00:40:45;;;;;;;4.32;3.92;;;5.70;99.90;;;;;;5065873;28;20637;-77
2023/12/30 00:43:12;;;;;;;4.07;3.75;;;5.70;99.90;;;;;;5067397;28;20218;-76
2023/12/30 00:45:39;;;;;;;4.70;4.30;;;5.60;99.90;;;;;;5068717;28;20209;-80
2023/12/30 00:48:07;;;;;;;3.95;3.65;;;5.60;99.90;;;;;;5062843;28;20210;-77
2023/12/30 00:50:35;;;;;;;4.07;3.78;;;5.60;99.90;;;;;;5071469;28;20201;-77
2023/12/30 00:53:02;;;;;;;4.15;3.85;;;5.60;99.90;;;;;;5066273;28;20215;-76
2023/12/30 00:55:29;;;;;;;4.10;3.80;;;5.60;99.90;;;;;;5071478;28;20195;-76
2023/12/30 00:57:57;;;;;;;4.93;3.83;;;5.60;99.90;;;;;;5068440;28;20292;-78
2023/12/30 01:00:24;;;;;;;4.38;4.07;;;5.60;99.90;;;;;;5068699;28;20210;-76
2023/12/30 01:02:51;;;;;;;4.65;4.25;;;5.50;99.90;;;;;;5064885;28;20210;-77
2023/12/30 01:05:18;;;;;;;3.80;3.50;;;5.60;99.90;;;;;;5069003;28;20197;-78
2023/12/30 01:07:46;;;;;;;3.85;3.60;;;5.50;99.90;;;;;;5068278;28;20218;-77
2023/12/30 01:10:13;;;;;;;3.60;3.40;;;5.50;99.90;;;;;;5068065;28;20226;-77
2023/12/30 01:12:40;;;;;;;3.92;3.63;;;5.50;99.90;;;;;;5068641;28;20225;-77
2023/12/30 01:15:10;;;;;;;3.97;3.72;;;5.50;99.90;;;;;;5067354;28;20206;-77
2023/12/30 01:17:37;;;;;;;3.70;3.50;;;5.50;99.90;;;;;;5069873;28;20225;-77
2023/12/30 01:20:05;;;;;;;3.75;3.45;;;5.50;99.90;;;;;;5068913;28;20222;-77
2023/12/30 01:22:32;;;;;;;4.07;3.78;;;5.50;99.90;;;;;;5071031;28;20726;-76
2023/12/30 01:25:01;;;;;;;3.85;3.55;;;5.50;99.90;;;;;;5066283;28;20198;-77
2023/12/30 01:27:28;;;;;;;2.97;2.78;;;5.50;99.90;;;;;;5069882;28;20229;-76
2023/12/30 01:29:55;;;;;;;3.40;3.20;;;5.50;99.90;;;;;;5066766;28;20222;-76
2023/12/30 01:32:22;;;;;;;3.47;3.28;;;5.50;99.90;;;;;;5067875;28;20218;-77
2023/12/30 01:34:49;;;;;;;3.38;3.08;;;5.50;99.90;;;;;;5068517;28;20202;-76
2023/12/30 01:37:16;;;;;;;4.43;4.07;;;5.50;99.90;;;;;;5072837;28;20253;-75
2023/12/30 01:39:43;;;;;;;3.80;3.60;;;5.40;99.90;;;;;;5069771;28;20233;-78
2023/12/30 01:42:12;;;;;;;4.03;3.72;;;5.40;99.90;;;;;;5068488;28;20236;-76
2023/12/30 01:44:39;;;;;;;3.88;3.58;;;5.40;99.90;;;;;;5068699;28;20202;-77
2023/12/30 01:47:07;;;;;;;3.67;3.45;;;5.40;99.90;;;;;;5066120;28;20696;-76
2023/12/30 01:49:34;;;;;;;3.53;3.33;;;5.40;99.90;;;;;;5068325;28;20662;-78
2023/12/30 01:52:03;;;;;;;3.78;3.47;;;5.40;99.90;;;;;;5066617;28;20206;-77
2023/12/30 01:54:31;;;;;;;4.25;3.95;;;5.30;99.90;;;;;;5066177;28;20210;-77
2023/12/30 01:57:00;;;;;;;4.00;3.70;;;5.30;99.90;;;;;;5066860;28;20195;-76
2023/12/30 01:59:30;;;;;;;3.90;3.60;;;5.20;99.90;;;;;;5069312;28;20229;-77
2023/12/30 02:01:57;;;;;;;3.90;3.70;;;5.20;99.90;;;;;;5067218;28;20206;-77
2023/12/30 02:04:25;;;;;;;3.90;3.70;;;5.10;99.90;;;;;;5071418;28;20205;-76
2023/12/30 02:06:52;;;;;;;3.83;3.63;;;5.10;99.90;;;;;;5069222;28;20245;-76
2023/12/30 02:09:19;;;;;;;4.07;3.88;;;5.20;99.90;;;;;;5067836;28;20253;-77
2023/12/30 02:11:46;;;;;;;3.88;3.58;;;5.20;99.90;;;;;;5066230;28;20202;-77
2023/12/30 02:14:26;;;;;;;3.97;3.67;;;5.20;99.90;;;;;;5065643;28;20218;-76
2023/12/30 02:16:55;;;;;;;3.80;3.50;;;5.10;99.90;;;;;;5069581;28;20568;-80
2023/12/30 02:19:22;;;;;;;3.80;3.50;;;5.10;99.90;;;;;;5067677;28;20226;-76
2023/12/30 02:21:49;;;;;;;3.70;3.50;;;5.10;99.90;;;;;;5066614;28;20213;-77
2023/12/30 02:24:19;;;;;;;3.63;3.42;;;5.10;99.90;;;;;;5066168;28;20199;-76
2023/12/30 02:26:46;;;;;;;3.67;3.47;;;5.10;99.90;;;;;;5066352;28;20583;-77
2023/12/30 02:29:13;;;;;;;3.63;3.42;;;5.10;99.90;;;;;;5065563;28;20226;-76
2023/12/30 02:31:45;;;;;;;4.22;3.90;;;5.10;99.90;;;;;;5068268;28;20210;-77
2023/12/30 02:34:13;;;;;;;3.95;3.65;;;5.00;99.90;;;;;;5063296;28;20218;-76
2023/12/30 02:36:40;;;;;;;3.80;3.60;;;5.00;99.90;;;;;;5066398;28;20214;-77
2023/12/30 02:39:07;;;;;;;3.78;3.55;;;5.00;99.90;;;;;;5066511;28;20226;-76
2023/12/30 02:41:35;;;;;;;4.22;3.75;;;4.90;99.90;;;;;;5067376;28;20201;-77
2023/12/30 02:44:03;;;;;;;3.75;3.55;;;4.90;99.90;;;;;;5065927;28;20240;-77
2023/12/30 02:46:31;;;;;;;4.53;4.18;;;4.90;99.90;;;;;;5060897;28;20202;-76
2023/12/30 02:49:02;;;;;;;4.53;4.22;;;4.90;99.90;;;;;;5064057;28;20218;-76
2023/12/30 02:51:29;;;;;;;4.20;3.90;;;4.80;99.90;;;;;;5065077;28;20203;-77
2023/12/30 02:53:56;;;;;;;4.00;3.70;;;4.80;99.90;;;;;;5063659;28;20225;-76
2023/12/30 02:56:24;;;;;;;4.63;4.32;;;4.80;99.90;;;;;;5065050;28;20226;-77
2023/12/30 02:58:55;;;;;;;3.95;3.70;;;4.80;99.90;;;;;;5064728;28;20233;-76
2023/12/30 03:01:24;;;;;;;4.07;3.83;;;4.80;99.90;;;;;;5062960;28;20233;-76
2023/12/30 03:03:53;;;;;;;4.45;4.15;;;4.70;99.90;;;;;;5060474;28;20214;-77
2023/12/30 03:06:20;;;;;;;4.38;4.07;;;4.70;99.90;;;;;;5063471;28;20229;-77
2023/12/30 03:08:47;;;;;;;4.82;4.43;;;4.70;99.90;;;;;;5068167;28;20312;-77
2023/12/30 03:11:14;;;;;;;3.88;3.60;;;4.70;99.90;;;;;;5065439;28;20599;-76
2023/12/30 03:13:41;;;;;;;4.50;4.10;;;4.70;99.90;;;;;;5045207;28;20226;-76
2023/12/30 03:16:11;;;;;;;4.13;3.83;;;4.70;99.90;;;;;;5044213;28;20203;-77
2023/12/30 03:18:39;;;;;;;4.15;3.85;;;4.60;99.90;;;;;;5059095;28;20708;-76
2023/12/30 03:21:08;;;;;;;4.20;3.90;;;4.60;99.90;;;;;;5064226;28;20293;-77
2023/12/30 03:23:35;;;;;;;4.20;3.80;;;4.60;99.90;;;;;;5064420;28;20237;-77
2023/12/30 03:26:02;;;;;;;4.00;3.70;;;4.70;99.90;;;;;;5064939;28;20201;-75
2023/12/30 03:28:29;;;;;;;4.07;3.78;;;4.60;99.90;;;;;;5065488;28;20229;-76
2023/12/30 03:30:56;;;;;;;3.97;3.67;;;4.70;99.90;;;;;;5068781;28;20209;-75
2023/12/30 03:33:25;;;;;;;4.50;4.20;;;4.70;99.90;;;;;;5061005;28;20214;-76
2023/12/30 03:35:52;;;;;;;3.58;3.38;;;4.70;99.90;;;;;;5066269;28;20198;-76
2023/12/30 03:38:19;;;;;;;4.03;3.72;;;4.60;99.90;;;;;;5059593;28;20222;-78
2023/12/30 03:40:46;;;;;;;4.30;4.00;;;4.60;99.90;;;;;;5067201;28;20202;-76
2023/12/30 03:43:14;;;;;;;4.57;4.28;;;4.60;99.90;;;;;;5064103;28;20214;-77
2023/12/30 03:45:41;;;;;;;3.83;3.63;;;4.60;99.90;;;;;;5067649;28;20206;-77
2023/12/30 03:48:09;;;;;;;3.65;3.42;;;4.60;99.90;;;;;;5063008;28;20244;-77
2023/12/30 03:50:37;;;;;;;4.13;3.83;;;4.50;99.90;;;;;;5063622;28;20198;-76
2023/12/30 03:53:05;;;;;;;4.50;4.20;;;4.50;99.90;;;;;;5062612;28;20218;-76
2023/12/30 03:55:32;;;;;;;3.97;3.67;;;4.50;99.90;;;;;;5066038;28;20245;-76
2023/12/30 03:57:59;;;;;;;4.15;3.85;;;4.50;99.90;;;;;;5064439;28;20207;-76
2023/12/30 04:00:26;;;;;;;3.90;3.63;;;4.50;99.90;;;;;;5069799;28;20200;-77
2023/12/30 04:02:53;;;;;;;3.92;3.72;;;4.50;99.90;;;;;;5067154;28;20214;-76
2023/12/30 04:05:20;;;;;;;4.22;3.92;;;4.50;99.90;;;;;;5065093;28;20285;-79
2023/12/30 04:07:48;;;;;;;4.20;3.90;;;4.50;99.90;;;;;;5062451;28;20309;-78
2023/12/30 04:10:17;;;;;;;4.22;3.92;;;4.50;99.90;;;;;;5062689;28;20231;-76
2023/12/30 04:12:44;;;;;;;4.00;3.70;;;4.50;99.90;;;;;;5064856;28;20228;-76
2023/12/30 04:15:11;;;;;;;4.05;3.75;;;4.40;99.90;;;;;;5060893;28;20217;-77
2023/12/30 04:17:39;;;;;;;4.35;4.05;;;4.40;99.90;;;;;;5063844;28;20229;-77
2023/12/30 04:20:07;;;;;;;4.38;4.07;;;4.40;99.90;;;;;;5067016;28;20218;-77
2023/12/30 04:22:34;;;;;;;3.53;3.22;;;4.40;99.90;;;;;;5064602;28;20317;-76
2023/12/30 04:25:03;;;;;;;4.85;4.45;;;4.40;99.90;;;;;;5065086;28;20210;-77
2023/12/30 04:27:30;;;;;;;4.45;4.05;;;4.40;99.90;;;;;;5063779;28;20219;-77
2023/12/30 04:29:57;;;;;;;4.10;3.80;;;4.40;99.90;;;;;;5065135;28;20218;-76
2023/12/30 04:32:25;;;;;;;5.07;4.60;;;4.40;99.90;;;;;;5064259;28;20210;-77
2023/12/30 04:34:52;;;;;;;4.60;4.22;;;4.40;99.90;;;;;;5066748;28;20226;-75
2023/12/30 04:37:20;;;;;;;4.82;4.43;;;4.30;99.90;;;;;;5064729;28;20238;-78
2023/12/30 04:39:47;;;;;;;3.88;3.58;;;4.30;99.90;;;;;;5069668;28;20218;-76
2023/12/30 04:42:16;;;;;;;4.30;4.00;;;4.30;99.90;;;;;;5069106;28;20222;-76
2023/12/30 04:44:43;;;;;;;4.38;4.07;;;4.30;99.90;;;;;;5068373;28;20209;-77
2023/12/30 04:47:10;;;;;;;4.32;4.03;;;4.30;99.90;;;;;;5072575;28;20224;-77
2023/12/30 04:49:37;;;;;;;4.50;4.20;;;4.30;99.90;;;;;;5069367;28;20230;-75
2023/12/30 04:52:04;;;;;;;4.22;3.83;;;4.30;99.90;;;;;;5067249;28;20209;-77
2023/12/30 04:54:31;;;;;;;4.35;4.05;;;4.30;99.90;;;;;;5048510;28;20229;-76
2023/12/30 04:56:58;;;;;;;5.10;4.70;;;4.30;99.90;;;;;;5045441;28;20202;-76
2023/12/30 04:59:27;;;;;;;4.75;4.40;;;4.30;99.90;;;;;;5045205;28;20226;-76
2023/12/30 05:01:54;;;;;;;4.70;4.30;;;4.30;99.90;;;;;;5046624;28;20195;-76
2023/12/30 05:04:22;;;;;;;4.60;4.30;;;4.20;99.90;;;;;;5068578;28;20202;-78
2023/12/30 05:06:49;;;;;;;3.72;3.50;;;4.20;99.90;;;;;;5065510;28;20665;-77
2023/12/30 05:09:16;;;;;;;4.55;4.25;;;4.30;99.90;;;;;;5068541;28;20229;-78
2023/12/30 05:11:48;;;;;;;4.95;4.65;;;4.30;99.90;;;;;;5068884;28;20202;-77
2023/12/30 05:14:15;;;;;;;5.00;4.60;;;4.30;99.90;;;;;;5065411;28;20214;-77
2023/12/30 05:16:46;;;;;;;4.20;3.90;;;4.30;99.90;;;;;;5070404;28;20202;-77
2023/12/30 05:19:13;;;;;;;4.10;3.90;;;4.30;99.90;;;;;;5067330;28;20214;-79
2023/12/30 05:21:40;;;;;;;4.63;4.30;;;4.30;99.90;;;;;;5067824;28;20462;-77
2023/12/30 05:24:08;;;;;;;4.18;3.88;;;4.30;99.90;;;;;;5067645;28;20709;-78
2023/12/30 05:26:35;;;;;;;4.32;4.03;;;4.30;99.90;;;;;;5076294;28;20234;-77
2023/12/30 05:29:02;;;;;;;4.50;4.18;;;4.30;99.90;;;;;;5076756;28;20748;-77
2023/12/30 05:31:29;;;;;;;4.47;4.18;;;4.30;99.90;;;;;;5071400;28;20271;-76
2023/12/30 05:33:58;;;;;;;4.65;4.35;;;4.30;99.90;;;;;;5069121;28;20221;-75
2023/12/30 05:36:25;;;;;;;4.65;4.25;;;4.30;99.90;;;;;;5069602;28;20226;-77
2023/12/30 05:38:51;;;;;;;5.10;4.80;;;4.20;99.90;;;;;;5064782;28;20225;-76
2023/12/30 05:41:18;;;;;;;4.63;4.32;;;4.20;99.90;;;;;;5066621;28;20281;-77
2023/12/30 05:43:45;;;;;;;4.75;4.35;;;4.20;99.90;;;;;;5072231;28;20332;-76
2023/12/30 05:46:16;;;;;;;4.65;4.35;;;4.20;99.90;;;;;;5066383;28;20205;-77
2023/12/30 05:48:44;;;;;;;4.15;3.85;;;4.20;99.90;;;;;;5066190;28;20238;-77
2023/12/30 05:51:12;;;;;;;4.70;4.40;;;4.20;99.90;;;;;;5069215;28;20572;-77
2023/12/30 05:53:40;;;;;;;4.15;3.85;;;4.20;99.90;;;;;;5071001;28;20688;-77
2023/12/30 05:56:08;;;;;;;5.25;4.85;;;4.20;99.90;;;;;;5070505;28;20214;-77
2023/12/30 05:58:37;;;;;;;4.55;4.25;;;4.20;99.90;;;;;;5068814;28;20252;-76
2023/12/30 06:01:04;;;;;;;4.95;4.57;;;4.30;99.90;;;;;;5068711;28;20233;-76
2023/12/30 06:03:32;;;;;;;4.88;4.50;;;4.30;99.90;;;;;;5066392;28;20701;-76
2023/12/30 06:05:59;;;;;;;5.10;4.57;;;4.30;99.90;;;;;;5066092;28;20233;-76
2023/12/30 06:08:27;;;;;;;3.92;3.63;;;4.30;99.90;;;;;;5067992;28;20225;-77
2023/12/30 06:10:54;;;;;;;4.30;4.00;;;4.30;99.90;;;;;;5067239;28;20206;-77
2023/12/30 06:13:21;;;;;;;4.60;4.30;;;4.30;99.90;;;;;;5065040;28;20229;-77
2023/12/30 06:15:52;;;;;;;4.30;4.00;;;4.30;99.90;;;;;;5066933;28;20206;-77
2023/12/30 06:18:19;;;;;;;4.50;4.20;;;4.30;99.90;;;;;;5067859;28;20206;-77
2023/12/30 06:20:47;;;;;;;5.07;4.68;;;4.40;99.90;;;;;;5069961;28;20199;-77
2023/12/30 06:23:15;;;;;;;4.28;3.97;;;4.40;99.90;;;;;;5067881;28;20226;-77
2023/12/30 06:25:44;;;;;;;4.40;4.10;;;4.40;99.90;;;;;;5067634;28;20612;-78
2023/12/30 06:28:19;;;;;;;4.82;4.43;;;4.40;99.90;;;;;;5064653;28;20249;-76
2023/12/30 06:30:47;;;;;;;4.57;4.28;;;4.40;99.90;;;;;;5066981;28;20205;-76
2023/12/30 06:33:15;;;;;;;4.13;3.92;;;4.40;99.90;;;;;;5066350;28;20287;-75
2023/12/30 06:35:43;;;;;;;4.57;4.18;;;4.40;99.90;;;;;;5066884;28;20642;-78
2023/12/30 06:38:10;;;;;;;4.40;4.10;;;4.40;99.90;;;;;;5067555;28;20249;-76
2023/12/30 06:40:37;;;;;;;4.22;3.92;;;4.40;99.90;;;;;;5067019;28;20233;-77
2023/12/30 06:43:10;;;;;;;3.53;3.28;;;4.40;99.90;;;;;;5062921;28;20218;-76
2023/12/30 06:45:39;;;;;;;4.30;3.97;;;4.40;99.90;;;;;;5063794;28;20225;-77
2023/12/30 06:48:09;;;;;;;4.50;4.20;;;4.40;99.90;;;;;;5063430;28;20225;-76
2023/12/30 06:50:39;;;;;;;5.85;5.35;;;4.30;99.90;;;;;;5067396;28;20206;-77
2023/12/30 06:53:06;;;;;;;4.70;4.40;;;4.40;99.90;;;;;;5060616;28;20218;-76
2023/12/30 06:55:33;;;;;;;4.32;4.03;;;4.30;99.90;;;;;;5065604;28;20237;-77
2023/12/30 06:58:00;;;;;;;4.78;4.47;;;4.30;99.90;;;;;;5066133;28;20222;-76
2023/12/30 07:00:29;;;;;;;4.82;4.53;;;4.30;99.90;;;;;;5066844;28;20202;-77
2023/12/30 07:02:56;;;;;;;4.65;4.32;;;4.30;99.90;;;;;;5067168;28;20230;-77
2023/12/30 07:05:23;;;;;;;4.70;4.30;;;4.20;99.90;;;;;;5066760;28;20206;-76
2023/12/30 07:07:50;;;;;;;5.50;5.10;;;4.10;99.90;;;;;;5065838;28;20222;-78
2023/12/30 07:10:17;;;;;;;4.78;4.38;;;4.10;99.90;;;;;;5063735;28;20641;-76
2023/12/30 07:12:44;;;;;;;4.35;4.05;;;4.10;99.90;;;;;;5065835;28;20225;-76
2023/12/30 07:15:11;;;;;;;5.28;4.88;;;4.10;99.90;;;;;;5063084;28;20214;-76
2023/12/30 07:17:40;;;;;;;4.90;4.50;;;4.10;99.90;;;;;;5067147;28;20240;-76
2023/12/30 07:20:08;;;;;;;5.20;4.80;;;4.10;99.90;;;;;;5067443;28;20217;-79
2023/12/30 07:22:35;;;;;;;5.68;5.28;;;4.10;99.90;;;;;;5067811;28;20217;-75
2023/12/30 07:25:02;;;;;;;5.32;4.93;;;4.10;99.90;;;;;;5063842;28;20194;-75
2023/12/30 07:27:29;;;;;;;4.93;4.53;;;4.10;99.90;;;;;;5065476;28;20226;-77
2023/12/30 07:29:57;;;;;;;4.45;4.15;;;4.10;99.90;;;;;;5067611;28;20688;-75
2023/12/30 07:32:24;;;;;;;4.00;3.65;;;4.20;99.90;;;;;;5066763;28;20233;-76
2023/12/30 07:34:53;;;;;;;4.30;4.00;;;4.20;99.90;;;;;;5067816;28;21050;-76
2023/12/30 07:37:20;;;;;;;4.45;4.15;;;4.30;99.90;;;;;;5066948;28;20222;-78
2023/12/30 07:39:49;;;;;;;4.65;4.25;;;4.30;99.90;;;;;;5068794;28;20244;-76
2023/12/30 07:42:17;;;;;;;4.68;4.38;;;4.30;99.90;;;;;;5070943;28;20248;-77
2023/12/30 07:44:44;;;;;;;4.28;3.97;;;4.40;99.90;;;;;;5066856;28;20646;-77
2023/12/30 07:47:11;;;;;;;5.07;4.68;;;4.50;99.90;;;;;;5066836;28;20205;-76
2023/12/30 07:49:38;;;;;;;5.07;4.68;;;4.50;99.90;;;;;;5062336;28;20226;-78
2023/12/30 07:52:06;;;;;;;6.43;4.80;;;4.50;99.90;;;;;;5065340;28;20203;-76
2023/12/30 07:54:33;;;;;;;5.20;4.85;;;4.50;99.90;;;;;;5061906;28;20198;-76
2023/12/30 07:57:00;;;;;;;5.88;5.38;;;4.60;99.90;;;;;;5064050;28;20209;-76
2023/12/30 07:59:27;;;;;;;5.90;5.40;;;4.50;99.90;;;;;;5065482;28;20301;-76
2023/12/30 08:01:56;;;;;;;5.47;5.07;;;4.60;99.90;;;;;;5060514;28;20211;-76
2023/12/30 08:04:24;;;;;;;5.80;5.30;;;4.60;99.90;;;;;;5068016;28;20285;-77
2023/12/30 08:06:51;;;;;;;5.80;5.38;;;4.60;99.90;;;;;;5066851;28;20568;-77
2023/12/30 08:09:20;;;;;;;6.25;5.47;;;4.60;99.90;;;;;;5064363;28;20741;-79
2023/12/30 08:11:47;;;;;;;6.90;6.28;;;4.60;99.90;;;;;;5066987;28;20208;-77
2023/12/30 08:14:15;;;;;;;6.63;6.03;;;4.60;99.90;;;;;;5070033;28;20221;-77
2023/12/30 08:16:42;;;;;;;6.20;5.70;;;4.60;99.90;;;;;;5066582;28;20238;-76
2023/12/30 08:19:09;;;;;;;6.45;5.95;;;4.60;99.90;;;;;;5068235;28;20233;-77
2023/12/30 08:21:36;;;;;;;7.38;6.78;;;4.70;99.90;;;;;;5070640;28;20198;-79
2023/12/30 08:24:06;;;;;;;9.38;8.55;;;5.20;99.90;;;;;;5070927;28;20225;-78
2023/12/30 08:26:34;;;;;;;9.15;8.35;;;6.00;99.90;;;;;;5068104;28;20289;-76
2023/12/30 08:29:02;;;;;;;8.23;7.53;;;6.90;99.90;;;;;;5068389;28;20222;-77
2023/12/30 08:31:29;;;;;;;7.50;6.90;;;7.70;99.90;;;;;;5060706;28;20198;-77
2023/12/30 08:33:56;;;;;;;6.65;6.15;;;8.20;99.90;;;;;;5061798;28;20221;-77
2023/12/30 08:36:23;;;;;;;6.95;6.35;;;8.50;99.90;;;;;;5072158;28;20202;-76
2023/12/30 08:38:50;;;;;;;6.82;6.22;;;8.80;99.90;;;;;;5072487;28;20245;-77
2023/12/30 08:41:19;;;;;;;6.57;5.97;;;9.00;99.90;;;;;;5073558;28;20203;-76
2023/12/30 08:43:49;;;;;;;7.30;6.55;;;9.20;99.90;;;;;;5068821;28;20218;-78
2023/12/30 08:46:16;;;;;;;7.47;6.78;;;9.50;99.90;;;;;;5070231;28;20204;-78
2023/12/30 08:48:43;;;;;;;6.97;6.38;;;9.90;99.90;;;;;;5070873;28;20224;-76
2023/12/30 08:51:12;;;;;;;7.10;5.68;;;10.40;99.90;;;;;;5071676;28;20198;-77
2023/12/30 08:53:39;;;;;;;5.78;5.28;;;10.70;99.90;;;;;;5071512;28;20241;-80
2023/12/30 08:56:07;;;;;;;7.40;6.80;;;11.20;99.90;;;;;;5064891;28;20234;-77
2023/12/30 08:58:34;;;;;;;8.52;6.75;;;11.70;99.90;;;;;;5066315;28;20222;-76
2023/12/30 09:01:02;;;;;;;7.40;6.70;;;12.10;99.90;;;;;;5067760;28;20203;-80
2023/12/30 09:03:29;;;;;;;7.70;6.95;;;12.70;99.90;;;;;;5069066;28;20220;-76
2023/12/30 09:05:56;;;;;;;7.95;7.18;;;13.00;99.90;;;;;;5068291;28;20205;-77
2023/12/30 09:08:23;;;;;;;8.35;6.72;;;13.40;99.90;;;;;;5069089;28;20221;-78
2023/12/30 09:10:50;;;;;;;7.10;6.35;;;13.90;99.90;;;;;;5069185;28;20214;-78
2023/12/30 09:13:17;;;;;;;7.57;6.88;;;14.40;99.90;;;;;;5064232;28;20583;-79
2023/12/30 09:15:44;;;;;;;7.90;7.10;;;14.80;99.90;;;;;;5062373;28;20221;-78
2023/12/30 09:18:13;;;;;;;7.85;7.00;;;15.30;99.90;;;;;;5060370;28;20221;-76
2023/12/30 09:20:40;;;;;;;7.45;6.78;;;16.10;99.90;;;;;;5064891;28;20198;-76
2023/12/30 09:23:07;;;;;;;7.15;6.45;;;17.30;99.90;;;;;;5059359;28;20218;-80
2023/12/30 09:25:34;;;;;;;7.13;6.03;;;18.40;99.90;;;;;;5065729;28;20244;-79
2023/12/30 09:28:01;;;;;;;6.10;5.60;;;19.50;99.90;;;;;;5065260;28;20244;-77
2023/12/30 09:30:28;;;;;;;5.82;5.28;;;20.40;99.90;;;;;;5065237;28;20214;-78
2023/12/30 09:32:55;;;;;;;6.05;5.50;;;21.10;99.90;;;;;;5063420;28;20230;-75
2023/12/30 09:35:23;;;;;;;6.03;4.93;;;21.50;99.90;;;;;;5064988;28;20201;-77
2023/12/30 09:37:50;;;;;;;6.13;5.50;;;21.70;97.00;;;;;;5061868;28;20237;-78
2023/12/30 09:40:17;;;;;;;5.43;4.93;;;21.90;95.20;;;;;;5062794;28;20226;-79
2023/12/30 09:42:48;;;;;;;5.85;5.07;;;22.30;94.70;;;;;;5065913;28;20234;-78
2023/12/30 09:45:16;;;;;;;4.85;4.38;;;22.80;91.30;;;;;;5061957;28;20198;-76
2023/12/30 09:47:45;;;;;;;5.20;4.70;;;22.80;90.10;;;;;;5061937;28;20227;-79
2023/12/30 09:50:12;;;;;;;5.30;4.80;;;22.60;88.40;;;;;;5065502;28;20289;-80
2023/12/30 09:52:42;;;;;;;4.88;4.47;;;22.90;84.90;;;;;;5065676;28;20234;-76
2023/12/30 09:55:09;;;;;;;5.35;4.85;;;23.20;84.60;;;;;;5064011;28;20199;-78
2023/12/30 09:57:36;;;;;;;4.60;4.20;;;23.40;80.30;;;;;;5062678;28;20219;-77
2023/12/30 10:00:05;;;;;;;7.07;4.82;;;23.10;78.00;;;;;;5065127;28;20226;-78
2023/12/30 10:02:33;;;;;;;5.68;5.18;;;22.40;78.90;;;;;;5064940;28;20307;-77
2023/12/30 10:05:01;;;;;;;6.72;6.13;;;20.90;82.00;;;;;;5064319;28;20789;-77
2023/12/30 10:07:31;;;;;;;5.80;5.05;;;19.70;88.50;;;;;;5064524;28;20222;-78
2023/12/30 10:09:59;;;;;;;6.03;5.43;;;18.50;91.50;;;;;;5066797;28;20214;-76
2023/12/30 10:12:26;;;;;;;5.57;4.88;;;17.50;93.80;;;;;;5066085;28;20676;-76
2023/12/30 10:14:53;;;;;;;6.20;5.60;;;16.50;95.90;;;;;;5064927;28;20214;-76
2023/12/30 10:17:21;;;;;;;6.47;5.75;;;16.00;97.80;;;;;;5067519;28;20225;-77
2023/12/30 10:19:48;;;;;;;6.30;5.70;;;15.70;99.00;;;;;;5060276;28;20242;-79
2023/12/30 10:22:15;;;;;;;6.35;5.60;;;15.50;99.90;;;;;;5069230;28;20225;-76
2023/12/30 10:24:43;;;;;;;6.30;5.70;;;15.40;99.90;;;;;;5068792;28;20213;-78
2023/12/30 10:27:11;;;;;;;6.45;5.85;;;15.30;99.90;;;;;;5066446;28;20314;-78
2023/12/30 10:29:39;;;;;;;6.60;6.00;;;15.00;99.90;;;;;;5065545;28;20237;-77
2023/12/30 10:32:08;;;;;;;8.07;6.53;;;15.00;99.90;;;;;;5061978;28;20743;-77
2023/12/30 10:34:40;;;;;;;6.60;5.93;;;14.90;99.90;;;;;;5063235;28;20198;-76
2023/12/30 10:37:09;;;;;;;6.60;6.00;;;14.90;99.90;;;;;;5067231;28;20230;-78
2023/12/30 10:39:40;;;;;;;6.32;5.72;;;14.90;99.90;;;;;;5066684;28;20221;-78
2023/12/30 10:42:08;;;;;;;5.88;5.38;;;14.70;99.90;;;;;;5067513;28;20232;-78
2023/12/30 10:44:36;;;;;;;6.05;5.55;;;14.60;99.90;;;;;;5063891;28;20213;-78
2023/12/30 10:47:05;;;;;;;6.10;5.55;;;14.60;99.90;;;;;;5066375;28;20663;-77
2023/12/30 10:49:32;;;;;;;10.07;6.55;;;14.50;99.90;;;;;;5071409;28;20229;-77
2023/12/30 10:52:06;;;;;;;6.45;5.88;;;14.40;99.90;;;;;;5065629;28;20642;-77
2023/12/30 10:54:41;;;;;;;6.20;5.60;;;14.40;99.90;;;;;;5062110;28;20198;-76
2023/12/30 10:57:14;;;;;;;6.38;5.85;;;14.50;99.90;;;;;;5063822;28;20202;-76
2023/12/30 10:59:46;;;;;;;6.38;5.45;;;14.40;99.90;;;;;;5066418;28;20509;-76
2023/12/30 11:02:13;;;;;;;5.97;5.47;;;14.50;99.90;;;;;;5060446;28;20232;-75
2023/12/30 11:04:41;;;;;;;6.25;5.65;;;14.70;99.90;;;;;;5067341;28;20672;-77
2023/12/30 11:07:11;;;;;;;6.50;5.75;;;14.90;99.90;;;;;;5068428;28;20202;-77
2023/12/30 11:09:38;;;;;;;6.50;5.90;;;15.10;99.90;;;;;;5070891;28;20249;-77
2023/12/30 11:12:06;;;;;;;7.25;6.55;;;15.10;99.90;;;;;;5065904;28;20213;-78
2023/12/30 11:14:36;;;;;;;6.25;5.70;;;15.10;99.90;;;;;;5065985;28;20205;-76
2023/12/30 11:17:05;;;;;;;6.35;5.32;;;15.00;99.90;;;;;;5067560;28;20207;-76
2023/12/30 11:19:35;;;;;;;5.47;4.97;;;14.60;99.90;;;;;;5063996;28;20249;-77
2023/12/30 11:22:06;;;;;;;6.18;5.30;;;14.60;99.90;;;;;;5064830;28;20210;-76
2023/12/30 11:25:24;;;;;;;6.50;5.90;;;14.50;99.90;;;;;;5068879;28;20296;-78
2023/12/30 11:28:10;;;;;;;6.57;4.88;;;14.60;99.90;;;;;;5062314;28;20306;-76
2023/12/30 11:36:47;;;;;;;5.20;4.70;;;15.00;99.90;;;;;;5067496;28;20205;-80
2023/12/30 11:39:41;;;;;;;5.60;5.10;;;15.00;99.90;;;;;;5052616;28;20248;-79
2023/12/30 11:42:34;;;;;;;5.65;5.15;;;15.00;99.90;;;;;;5066323;28;20198;-77
2023/12/30 11:45:17;;;;;;;6.03;5.55;;;14.90;99.90;;;;;;5065837;28;20210;-78
2023/12/30 11:50:31;;;;;;;5.72;5.22;;;14.90;99.90;;;;;;5073127;28;20279;-77
2023/12/30 11:55:55;;;;;;;6.32;5.32;;;15.10;99.90;;;;;;5048416;28;20569;-77
2023/12/30 12:05:04;;;;;;;6.78;5.97;;;14.90;99.90;;;;;;5068512;28;20198;-76
2023/12/30 12:11:05;;;;;;;6.22;5.57;;;15.20;99.90;;;;;;5068904;28;20255;-76
2023/12/30 12:13:34;;;;;;;5.82;5.32;;;15.30;99.90;;;;;;5065615;28;20229;-77
2023/12/30 12:16:04;;;;;;;5.63;5.13;;;15.10;99.90;;;;;;5067604;28;20293;-78
2023/12/30 12:18:32;;;;;;;5.13;4.72;;;14.70;99.90;;;;;;5060932;28;20721;-75
2023/12/30 12:21:04;;;;;;;5.72;5.22;;;14.30;99.90;;;;;;5063252;28;20637;-78
2023/12/30 12:23:33;;;;;;;5.88;5.25;;;14.10;99.90;;;;;;5069658;28;20216;-76
2023/12/30 12:26:04;;;;;;;5.70;5.10;;;14.10;99.90;;;;;;5066624;28;20627;-77
2023/12/30 12:28:35;;;;;;;6.45;5.78;;;14.40;99.90;;;;;;5066558;28;20218;-77
2023/12/30 12:31:03;;;;;;;4.78;4.32;;;14.50;99.90;;;;;;5066795;28;20268;-77
2023/12/30 12:33:52;;;;;;;6.75;6.05;;;14.50;99.90;;;;;;5058831;28;20243;-77
2023/12/30 12:36:21;;;;;;;8.05;6.20;;;14.50;99.90;;;;;;5050333;28;20283;-79
2023/12/30 12:38:52;;;;;;;6.10;5.40;;;14.80;99.90;;;;;;5046898;28;20241;-76
2023/12/30 12:41:33;;;;;;;5.40;4.90;;;15.10;99.90;;;;;;5042547;28;20236;-76
2023/12/30 12:44:17;;;;;;;6.93;5.45;;;14.90;99.90;;;;;;5055598;28;20584;-77
2023/12/30 12:46:52;;;;;;;6.47;5.60;;;14.70;99.90;;;;;;5067358;28;20202;-78
2023/12/30 12:49:26;;;;;;;6.40;5.15;;;14.80;99.90;;;;;;5070250;28;20710;-77
2023/12/30 12:52:08;;;;;;;5.70;4.88;;;14.90;99.90;;;;;;5068457;28;20233;-77
2023/12/30 12:55:05;;;;;;;5.50;4.65;;;15.10;99.90;;;;;;5070182;28;20293;-78
2023/12/30 13:11:08;;;;;;;4.72;4.35;;;13.70;99.90;;;;;;5049627;28;20230;-77
2023/12/30 13:16:30;;;;;;;5.05;4.53;;;13.90;99.90;;;;;;5070887;28;20206;-77
2023/12/30 13:19:18;;;;;;;5.82;5.22;;;14.20;99.90;;;;;;5071336;28;20229;-76
2023/12/30 13:27:29;;;;;;;5.32;4.82;;;13.70;99.90;;;;;;5046604;28;20347;-77
2023/12/30 13:50:18;;;;;;;4.70;4.30;;;13.00;99.90;;;;;;5003141;28;20227;-79
2023/12/30 13:56:17;;;;;;;4.97;4.57;;;12.20;99.90;;;;;;5023147;28;20295;-77
2023/12/30 13:59:09;;;;;;;4.40;4.00;;;11.90;99.90;;;;;;5019727;28;20274;-75
2023/12/30 15:09:17;;;;;;;3.75;3.45;;;9.20;99.90;;;;;;5116689;27;20303;-77
2023/12/30 15:11:44;;;;;;;3.65;3.45;;;9.00;99.90;;;;;;5092673;27;20226;-75
2023/12/30 15:14:12;;;;;;;4.28;3.97;;;9.00;99.90;;;;;;5077379;28;20573;-77
2023/12/30 15:16:39;;;;;;;3.70;3.40;;;8.90;99.90;;;;;;5089049;28;20213;-75